createdAt,value
2019-03-28T00:00:12.215Z,16.80
2019-03-28T00:02:43.291Z,16.62
2019-03-28T00:05:12.824Z,16.57
2019-03-28T00:07:42.407Z,17.37
2019-03-28T00:10:12.054Z,17.92
2019-03-28T00:12:41.758Z,17.12
2019-03-28T00:15:11.412Z,17.15
2019-03-28T00:17:41.018Z,17.82
2019-03-28T00:20:10.573Z,18.55
2019-03-28T00:22:42.197Z,17.45
2019-03-28T00:25:14.634Z,17.60
2019-03-28T00:27:44.288Z,18.92
2019-03-28T00:30:16.514Z,18.42
2019-03-28T00:32:46.161Z,18.25
2019-03-28T00:35:15.571Z,19.23
2019-03-28T00:37:45.119Z,20.62
2019-03-28T00:40:14.830Z,18.93
2019-03-28T00:42:44.276Z,19.62
2019-03-28T00:45:13.971Z,19.70
2019-03-28T00:47:43.446Z,20.35
2019-03-28T00:50:14.410Z,20.20
2019-03-28T00:52:43.956Z,20.72
2019-03-28T00:55:13.597Z,20.68
2019-03-28T00:57:43.075Z,19.73
2019-03-28T01:00:14.477Z,21.12
2019-03-28T01:02:44.005Z,20.72
2019-03-28T01:05:14.326Z,20.50
2019-03-28T01:07:43.910Z,22.02
2019-03-28T01:10:13.623Z,20.45
2019-03-28T01:12:44.129Z,21.25
2019-03-28T01:15:13.749Z,21.30
2019-03-28T01:17:44.148Z,20.70
2019-03-28T01:20:13.761Z,21.05
2019-03-28T01:22:43.232Z,21.23
2019-03-28T01:25:12.742Z,20.70
2019-03-28T01:27:42.224Z,21.68
2019-03-28T01:30:11.976Z,21.80
2019-03-28T01:32:42.427Z,20.08
2019-03-28T01:35:11.939Z,21.27
2019-03-28T01:37:41.412Z,20.12
2019-03-28T01:40:10.921Z,19.90
2019-03-28T01:42:40.404Z,19.20
2019-03-28T01:45:09.906Z,19.50
2019-03-28T01:47:39.377Z,20.08
2019-03-28T01:50:09.401Z,18.54
2019-03-28T01:52:38.976Z,19.12
2019-03-28T01:55:08.562Z,19.72
2019-03-28T01:57:38.034Z,19.25
2019-03-28T02:00:10.955Z,18.73
2019-03-28T02:02:40.426Z,19.60
2019-03-28T02:05:09.968Z,19.27
2019-03-28T02:07:39.406Z,19.95
2019-03-28T02:10:09.221Z,18.37
2019-03-28T02:12:38.671Z,18.75
2019-03-28T02:15:09.749Z,18.52
2019-03-28T02:17:39.220Z,18.65
2019-03-28T02:20:09.130Z,18.84
2019-03-28T02:22:38.601Z,18.15
2019-03-28T02:25:08.715Z,19.98
2019-03-28T02:27:38.186Z,17.75
2019-03-28T02:30:08.515Z,18.00
2019-03-28T02:32:37.990Z,18.75
2019-03-28T02:35:07.564Z,19.70
2019-03-28T02:37:37.102Z,17.95
2019-03-28T02:40:07.719Z,17.32
2019-03-28T02:42:38.205Z,18.52
2019-03-28T02:45:08.531Z,17.12
2019-03-28T02:47:37.987Z,17.17
2019-03-28T02:50:08.158Z,17.95
2019-03-28T02:52:37.720Z,17.30
2019-03-28T02:55:08.233Z,18.20
2019-03-28T02:57:41.493Z,17.55
2019-03-28T03:00:09.487Z,16.32
2019-03-28T03:02:39.105Z,17.17
2019-03-28T03:05:08.831Z,15.40
2019-03-28T03:07:38.352Z,17.27
2019-03-28T03:10:08.484Z,15.72
2019-03-28T03:12:38.071Z,15.50
2019-03-28T03:15:08.321Z,15.35
2019-03-28T03:17:37.786Z,14.83
2019-03-28T03:20:08.233Z,15.05
2019-03-28T03:22:37.833Z,16.00
2019-03-28T03:25:09.309Z,14.98
2019-03-28T03:27:38.853Z,14.47
2019-03-28T03:30:09.326Z,14.50
2019-03-28T03:32:38.893Z,13.93
2019-03-28T03:35:08.939Z,14.18
2019-03-28T03:37:40.056Z,13.72
2019-03-28T03:40:10.065Z,13.72
2019-03-28T03:42:40.581Z,14.33
2019-03-28T03:45:10.495Z,13.40
2019-03-28T03:47:39.934Z,13.70
2019-03-28T03:50:10.253Z,13.20
2019-03-28T03:52:39.691Z,13.55
2019-03-28T03:55:09.233Z,12.76
2019-03-28T03:57:39.054Z,12.63
2019-03-28T04:00:08.675Z,12.78
2019-03-28T04:02:38.205Z,13.72
2019-03-28T04:05:07.993Z,12.80
2019-03-28T04:07:37.429Z,13.75
2019-03-28T04:10:07.265Z,13.20
2019-03-28T04:12:36.734Z,13.62
2019-03-28T04:15:06.420Z,13.03
2019-03-28T04:17:36.907Z,12.75
2019-03-28T04:20:07.676Z,13.00
2019-03-28T04:22:37.503Z,13.70
2019-03-28T04:25:07.153Z,13.65
2019-03-28T04:27:36.623Z,14.13
2019-03-28T04:30:08.374Z,14.07
2019-03-28T04:32:37.900Z,13.90
2019-03-28T04:35:07.534Z,13.85
2019-03-28T04:37:37.016Z,15.38
2019-03-28T04:40:08.530Z,15.30
2019-03-28T04:42:38.368Z,15.47
2019-03-28T04:45:08.036Z,13.83
2019-03-28T04:47:37.572Z,14.78
2019-03-28T04:50:07.591Z,15.00
2019-03-28T04:52:37.046Z,15.45
2019-03-28T04:55:07.828Z,14.35
2019-03-28T04:57:37.309Z,15.53
2019-03-28T05:00:10.691Z,15.63
2019-03-28T05:02:40.183Z,16.80
2019-03-28T05:05:09.865Z,17.00
2019-03-28T05:07:39.341Z,15.00
2019-03-28T05:10:09.714Z,15.65
2019-03-28T05:12:39.183Z,16.07
2019-03-28T05:15:09.613Z,15.48
2019-03-28T05:17:39.224Z,16.73
2019-03-28T05:20:09.085Z,16.25
2019-03-28T05:22:38.524Z,16.48
2019-03-28T05:25:08.502Z,16.62
2019-03-28T05:27:39.186Z,16.73
2019-03-28T05:30:10.620Z,16.06
2019-03-28T05:32:40.070Z,16.52
2019-03-28T05:35:09.680Z,16.63
2019-03-28T05:37:39.754Z,17.45
2019-03-28T05:40:09.619Z,17.17
2019-03-28T05:42:39.188Z,16.95
2019-03-28T05:45:09.248Z,17.64
2019-03-28T05:47:38.701Z,16.55
2019-03-28T05:50:08.342Z,17.45
2019-03-28T05:52:37.795Z,16.93
2019-03-28T05:55:07.990Z,18.00
2019-03-28T05:57:37.532Z,17.62
2019-03-28T06:00:07.852Z,17.20
2019-03-28T06:02:37.380Z,16.67
2019-03-28T06:05:08.640Z,17.30
2019-03-28T06:07:38.158Z,18.02
2019-03-28T06:10:09.309Z,17.50
2019-03-28T06:12:39.790Z,18.65
2019-03-28T06:15:09.520Z,26.07
2019-03-28T06:17:39.076Z,18.73
2019-03-28T06:20:09.486Z,20.46
2019-03-28T06:22:39.571Z,20.90
2019-03-28T06:25:10.825Z,21.12
2019-03-28T06:27:40.246Z,22.07
2019-03-28T06:30:10.552Z,22.35
2019-03-28T06:32:43.041Z,21.90
2019-03-28T06:35:11.345Z,23.40
2019-03-28T06:37:40.795Z,21.90
2019-03-28T06:40:11.247Z,23.65
2019-03-28T06:42:40.767Z,23.27
2019-03-28T06:45:10.831Z,22.77
2019-03-28T06:47:40.379Z,21.80
2019-03-28T06:50:10.476Z,22.82
2019-03-28T06:52:40.053Z,21.57
2019-03-28T06:55:09.681Z,22.25
2019-03-28T06:57:39.121Z,21.73
2019-03-28T07:00:10.406Z,22.13
2019-03-28T07:02:39.954Z,20.62
2019-03-28T07:05:10.212Z,20.60
2019-03-28T07:07:40.160Z,21.27
2019-03-28T07:10:10.919Z,20.88
2019-03-28T07:12:40.440Z,20.37
2019-03-28T07:15:10.489Z,19.95
2019-03-28T07:17:40.046Z,20.25
2019-03-28T07:20:10.139Z,20.15
2019-03-28T07:22:39.717Z,19.55
2019-03-28T07:25:10.529Z,19.00
2019-03-28T07:27:40.147Z,18.45
2019-03-28T07:30:12.709Z,17.85
2019-03-28T07:32:43.562Z,18.00
2019-03-28T07:35:13.478Z,17.10
2019-03-28T07:37:44.094Z,16.02
2019-03-28T07:40:14.779Z,17.73
2019-03-28T07:42:44.257Z,18.27
2019-03-28T07:45:17.125Z,17.42
2019-03-28T07:47:46.611Z,17.35
2019-03-28T07:50:16.474Z,16.30
2019-03-28T07:52:46.101Z,15.55
2019-03-28T07:55:16.669Z,15.88
2019-03-28T07:57:46.280Z,15.53
2019-03-28T08:00:16.298Z,14.93
2019-03-28T08:02:45.891Z,14.93
2019-03-28T08:05:15.556Z,15.23
2019-03-28T08:07:45.835Z,14.50
2019-03-28T08:10:16.396Z,13.68
2019-03-28T08:12:46.039Z,14.60
2019-03-28T08:15:15.614Z,13.30
2019-03-28T08:17:45.598Z,12.82
2019-03-28T08:20:15.667Z,13.00
2019-03-28T08:22:45.218Z,12.47
2019-03-28T08:25:15.768Z,12.85
2019-03-28T08:27:45.320Z,11.90
2019-03-28T08:30:18.754Z,13.57
2019-03-28T08:32:46.593Z,12.73
2019-03-28T08:35:17.684Z,13.08
2019-03-28T08:37:47.316Z,12.85
2019-03-28T08:40:19.903Z,13.33
2019-03-28T08:42:49.609Z,13.20
2019-03-28T08:45:19.120Z,12.53
2019-03-28T08:47:49.126Z,11.68
2019-03-28T08:50:18.610Z,12.40
2019-03-28T08:52:49.052Z,12.60
2019-03-28T08:55:18.522Z,11.88
2019-03-28T08:57:48.026Z,12.15
2019-03-28T09:00:32.321Z,12.30
2019-03-28T09:02:49.025Z,12.18
2019-03-28T09:05:18.523Z,12.05
2019-03-28T09:07:48.072Z,12.25
2019-03-28T09:10:17.532Z,11.90
2019-03-28T09:12:47.010Z,11.48
2019-03-28T09:15:16.677Z,12.33
2019-03-28T09:17:46.156Z,12.58
2019-03-28T09:20:16.346Z,12.23
2019-03-28T09:22:45.911Z,13.22
2019-03-28T09:25:15.952Z,13.70
2019-03-28T09:27:45.471Z,10.88
2019-03-28T09:30:16.704Z,10.70
2019-03-28T09:32:46.481Z,9.83
2019-03-28T09:35:19.084Z,9.18
2019-03-28T09:37:49.513Z,9.38
2019-03-28T09:40:19.209Z,9.83
2019-03-28T09:42:48.882Z,9.53
2019-03-28T09:45:18.310Z,8.60
2019-03-28T09:47:47.790Z,8.68
2019-03-28T09:50:17.547Z,9.10
2019-03-28T09:52:47.097Z,8.70
2019-03-28T09:55:18.917Z,8.10
2019-03-28T09:57:47.720Z,8.20
2019-03-28T10:00:17.629Z,7.95
2019-03-28T10:02:47.130Z,8.28
2019-03-28T10:05:24.241Z,8.00
2019-03-28T10:07:53.795Z,7.83
2019-03-28T10:10:23.267Z,8.43
2019-03-28T10:12:52.733Z,8.45
2019-03-28T10:15:22.242Z,9.03
2019-03-28T10:17:51.905Z,8.63
2019-03-28T10:20:21.349Z,9.07
2019-03-28T10:22:50.830Z,9.35
2019-03-28T10:25:20.318Z,9.00
2019-03-28T10:27:49.760Z,9.38
2019-03-28T10:32:51.025Z,10.08
2019-03-28T10:35:28.483Z,9.07
2019-03-28T10:37:57.976Z,8.58
2019-03-28T10:40:27.465Z,8.90
2019-03-28T10:42:56.976Z,8.23
2019-03-28T10:45:26.447Z,7.92
2019-03-28T10:47:57.535Z,7.67
2019-03-28T10:50:40.165Z,8.03
2019-03-28T10:52:58.245Z,8.28
2019-03-28T10:55:27.700Z,8.55
2019-03-28T10:57:59.022Z,8.90
2019-03-28T11:00:29.012Z,8.55
2019-03-28T11:02:58.625Z,8.40
2019-03-28T11:05:28.120Z,8.13
2019-03-28T11:07:57.594Z,8.10
2019-03-28T11:10:30.368Z,8.55
2019-03-28T11:12:58.225Z,7.35
2019-03-28T11:15:53.097Z,8.83
2019-03-28T11:18:09.275Z,7.07
2019-03-28T11:20:40.120Z,7.10
2019-03-28T11:23:09.889Z,6.28
2019-03-28T11:25:39.451Z,5.87
2019-03-28T11:28:08.995Z,5.24
2019-03-28T11:30:39.589Z,5.72
2019-03-28T11:33:09.141Z,6.30
2019-03-28T11:35:38.620Z,6.85
2019-03-28T11:38:09.598Z,6.78
2019-03-28T11:40:42.979Z,7.13
2019-03-28T11:43:12.701Z,7.20
2019-03-28T11:45:42.385Z,7.15
2019-03-28T11:48:11.831Z,5.87
2019-03-28T11:50:41.601Z,6.62
2019-03-28T11:53:12.183Z,6.97
2019-03-28T11:55:41.781Z,9.85
2019-03-28T11:58:11.620Z,8.90
2019-03-28T12:00:41.287Z,8.93
2019-03-28T12:03:10.863Z,8.53
2019-03-28T12:05:40.465Z,7.40
2019-03-28T12:08:09.972Z,7.60
2019-03-28T12:10:39.535Z,8.18
2019-03-28T12:13:09.032Z,7.88
2019-03-28T12:15:38.687Z,7.67
2019-03-28T12:18:08.130Z,7.47
2019-03-28T12:20:37.619Z,10.82
2019-03-28T12:23:07.162Z,9.28
2019-03-28T12:25:36.630Z,8.43
2019-03-28T12:28:06.258Z,9.25
2019-03-28T12:30:36.498Z,8.53
2019-03-28T12:33:05.944Z,9.38
2019-03-28T12:35:35.604Z,8.50
2019-03-28T12:38:05.113Z,7.35
2019-03-28T12:40:34.753Z,8.40
2019-03-28T12:43:04.514Z,8.68
2019-03-28T12:45:33.973Z,8.40
2019-03-28T12:48:04.640Z,7.33
2019-03-28T12:50:34.393Z,6.50
2019-03-28T12:53:04.436Z,7.50
2019-03-28T12:55:33.991Z,8.98
2019-03-28T12:58:03.726Z,7.05
2019-03-28T13:00:35.231Z,7.30
2019-03-28T13:03:04.856Z,6.87
2019-03-28T13:05:36.356Z,7.20
2019-03-28T13:08:05.926Z,7.72
2019-03-28T13:10:35.587Z,7.73
2019-03-28T13:13:05.171Z,7.70
2019-03-28T13:15:34.830Z,8.08
2019-03-28T13:18:04.544Z,7.08
2019-03-28T13:20:34.225Z,7.50
2019-03-28T13:23:04.859Z,7.53
2019-03-28T13:25:34.465Z,7.85
2019-03-28T13:28:04.393Z,7.35
2019-03-28T13:30:35.559Z,7.45
2019-03-28T13:33:05.115Z,7.37
2019-03-28T13:35:35.411Z,7.45
2019-03-28T13:38:05.357Z,7.62
2019-03-28T13:40:34.906Z,7.05
2019-03-28T13:43:04.795Z,7.60
2019-03-28T13:45:34.728Z,7.50
2019-03-28T13:48:04.622Z,6.83
2019-03-28T13:50:34.102Z,6.50
2019-03-28T13:53:04.483Z,6.50
2019-03-28T13:55:33.968Z,6.10
2019-03-28T13:58:04.955Z,5.90
2019-03-28T14:00:34.876Z,5.67
2019-03-28T14:03:04.541Z,5.85
2019-03-28T14:05:34.038Z,5.67
2019-03-28T14:08:04.629Z,6.00
2019-03-28T14:10:34.423Z,5.30
2019-03-28T14:13:04.410Z,5.37
2019-03-28T14:15:34.078Z,5.85
2019-03-28T14:18:04.532Z,5.37
2019-03-28T14:20:34.010Z,5.10
2019-03-28T14:23:04.386Z,6.30
2019-03-28T14:25:33.970Z,5.55
2019-03-28T14:28:04.894Z,6.03
2019-03-28T14:30:34.404Z,5.73
2019-03-28T14:33:11.185Z,6.50
2019-03-28T14:35:35.921Z,6.58
2019-03-28T14:38:05.460Z,6.12
2019-03-28T14:40:35.057Z,5.83
2019-03-28T14:43:09.001Z,6.80
2019-03-28T14:45:37.753Z,6.58
2019-03-28T14:48:07.371Z,6.17
2019-03-28T14:50:38.983Z,6.10
2019-03-28T14:53:08.655Z,5.96
2019-03-28T14:55:38.442Z,6.00
2019-03-28T14:58:08.359Z,5.92
2019-03-28T15:00:48.458Z,5.55
2019-03-28T15:03:26.080Z,5.30
2019-03-28T15:05:50.158Z,5.22
2019-03-28T15:08:19.732Z,4.20
2019-03-28T15:10:49.210Z,4.65
2019-03-28T15:13:18.649Z,4.47
2019-03-28T15:15:49.153Z,4.60
2019-03-28T15:18:18.780Z,5.22
2019-03-28T15:20:48.407Z,4.90
2019-03-28T15:23:17.840Z,5.17
2019-03-28T15:25:47.461Z,5.63
2019-03-28T15:28:17.929Z,4.80
2019-03-28T15:30:47.541Z,4.83
2019-03-28T15:33:17.001Z,4.90
2019-03-28T15:35:46.593Z,5.33
2019-03-28T15:38:16.122Z,5.50
2019-03-28T15:40:45.562Z,5.08
2019-03-28T15:43:15.065Z,5.70
2019-03-28T15:45:44.542Z,5.80
2019-03-28T15:48:14.159Z,6.35
2019-03-28T15:50:43.767Z,5.92
2019-03-28T15:53:13.201Z,6.00
2019-03-28T15:55:42.979Z,6.22
2019-03-28T15:58:22.454Z,6.05
2019-03-28T16:00:43.839Z,6.60
2019-03-28T16:03:13.736Z,6.07
2019-03-28T16:05:57.177Z,5.42
2019-03-28T16:08:14.582Z,5.27
2019-03-28T16:10:44.119Z,5.12
2019-03-28T16:13:13.562Z,3.70
2019-03-28T16:15:43.197Z,2.90
2019-03-28T16:18:13.692Z,3.53
2019-03-28T16:20:43.323Z,3.50
2019-03-28T16:23:12.755Z,3.42
2019-03-28T16:25:43.313Z,3.10
2019-03-28T16:28:12.779Z,2.80
2019-03-28T16:30:42.243Z,2.55
2019-03-28T16:33:11.709Z,2.37
2019-03-28T16:35:41.261Z,2.67
2019-03-28T16:38:10.746Z,2.52
2019-03-28T16:40:40.294Z,2.60
2019-03-28T16:43:10.035Z,2.77
2019-03-28T16:45:39.568Z,2.62
2019-03-28T16:48:09.154Z,2.84
2019-03-28T16:50:38.660Z,3.20
2019-03-28T16:53:08.236Z,3.45
2019-03-28T16:55:37.786Z,3.45
2019-03-28T16:58:08.270Z,3.40
2019-03-28T17:00:38.906Z,3.90
2019-03-28T17:03:08.999Z,4.05
2019-03-28T17:05:47.173Z,4.05
2019-03-28T17:08:17.696Z,4.05
2019-03-28T17:10:49.068Z,3.90
2019-03-28T17:13:19.646Z,3.67
2019-03-28T17:15:49.260Z,4.20
2019-03-28T17:18:19.220Z,4.92
2019-03-28T17:20:48.937Z,4.45
2019-03-28T17:23:18.877Z,5.23
2019-03-28T17:25:48.486Z,5.50
2019-03-28T17:28:18.194Z,5.12
2019-03-28T17:30:47.755Z,5.78
2019-03-28T17:33:17.959Z,5.83
2019-03-28T17:35:47.754Z,5.87
2019-03-28T17:38:17.438Z,5.67
2019-03-28T17:40:46.916Z,5.62
2019-03-28T17:43:16.426Z,6.30
2019-03-28T17:45:46.037Z,6.15
2019-03-28T17:48:15.541Z,6.47
2019-03-28T17:50:46.057Z,6.75
2019-03-28T17:53:16.695Z,7.10
2019-03-28T17:55:46.155Z,6.58
2019-03-28T17:58:15.814Z,7.62
2019-03-28T18:00:46.413Z,7.17
2019-03-28T18:03:30.229Z,7.92
2019-03-28T18:05:57.924Z,6.92
2019-03-28T18:08:19.866Z,7.67
2019-03-28T18:10:49.722Z,7.87
2019-03-28T18:13:19.157Z,7.28
2019-03-28T18:15:48.635Z,7.60
2019-03-28T18:18:18.089Z,7.65
2019-03-28T18:20:47.636Z,7.67
2019-03-28T18:23:17.113Z,7.65
2019-03-28T18:25:46.573Z,7.62
2019-03-28T18:28:16.049Z,7.53
2019-03-28T18:30:45.950Z,7.45
2019-03-28T18:33:15.736Z,7.12
2019-03-28T18:35:45.235Z,7.45
2019-03-28T18:38:14.714Z,7.17
2019-03-28T18:40:44.200Z,6.95
2019-03-28T18:43:13.791Z,7.12
2019-03-28T18:45:43.656Z,7.30
2019-03-28T18:48:26.957Z,7.30
2019-03-28T18:50:44.763Z,7.53
2019-03-28T18:53:14.338Z,7.33
2019-03-28T18:55:43.954Z,8.33
2019-03-28T18:58:13.750Z,8.15
2019-03-28T19:00:43.329Z,7.50
2019-03-28T19:03:13.077Z,8.38
2019-03-28T19:05:42.721Z,8.28
2019-03-28T19:08:12.329Z,8.40
2019-03-28T19:10:42.917Z,8.10
2019-03-28T19:13:13.853Z,7.95
2019-03-28T19:15:43.495Z,8.23
2019-03-28T19:18:13.002Z,8.33
2019-03-28T19:20:42.674Z,8.73
2019-03-28T19:23:12.516Z,8.70
2019-03-28T19:25:42.006Z,8.85
2019-03-28T19:28:11.584Z,8.55
2019-03-28T19:30:41.300Z,8.58
2019-03-28T19:33:11.730Z,8.70
2019-03-28T19:35:41.302Z,9.35
2019-03-28T19:38:12.524Z,8.95
2019-03-28T19:40:42.106Z,9.00
2019-03-28T19:43:20.296Z,8.13
2019-03-28T19:45:43.040Z,9.45
2019-03-28T19:48:12.608Z,9.07
2019-03-28T19:50:43.041Z,9.38
2019-03-28T19:53:12.507Z,9.70
2019-03-28T19:55:42.029Z,8.98
2019-03-28T19:58:13.763Z,9.77
2019-03-28T20:00:43.983Z,9.38
2019-03-28T20:03:13.876Z,9.93
2019-03-28T20:05:48.067Z,9.60
2019-03-28T20:08:16.435Z,10.00
2019-03-28T20:10:45.995Z,9.93
2019-03-28T20:13:15.469Z,9.68
2019-03-28T20:15:45.040Z,10.53
2019-03-28T20:18:14.506Z,10.38
2019-03-28T20:20:45.538Z,10.58
2019-03-28T20:23:15.152Z,10.87
2019-03-28T20:25:44.706Z,11.18
2019-03-28T20:28:14.737Z,10.78
2019-03-28T20:30:44.522Z,10.88
2019-03-28T20:33:14.249Z,11.17
2019-03-28T20:35:44.077Z,11.20
2019-03-28T20:38:13.999Z,11.15
2019-03-28T20:40:43.721Z,11.10
2019-03-28T20:43:13.460Z,11.50
2019-03-28T20:45:43.047Z,11.18
2019-03-28T20:48:13.045Z,11.05
2019-03-28T20:50:42.715Z,11.50
2019-03-28T20:53:13.329Z,11.03
2019-03-28T20:55:43.092Z,11.73
2019-03-28T20:58:13.473Z,11.38
2019-03-28T21:00:45.424Z,11.35
2019-03-28T21:03:15.683Z,11.65
2019-03-28T21:05:45.914Z,11.55
2019-03-28T21:08:15.360Z,11.07
2019-03-28T21:10:45.842Z,11.45
2019-03-28T21:13:15.385Z,11.63
2019-03-28T21:15:45.769Z,10.65
2019-03-28T21:18:15.410Z,10.88
2019-03-28T21:20:44.892Z,10.68
2019-03-28T21:23:14.384Z,11.25
2019-03-28T21:25:44.018Z,11.25
2019-03-28T21:28:13.965Z,10.80
2019-03-28T21:30:47.705Z,11.73
2019-03-28T21:33:15.188Z,10.82
2019-03-28T21:35:45.111Z,10.82
2019-03-28T21:38:14.589Z,10.60
2019-03-28T21:40:44.063Z,11.45
2019-03-28T21:43:13.877Z,11.40
2019-03-28T21:45:43.334Z,10.72
2019-03-28T21:48:12.857Z,10.55
2019-03-28T21:50:42.671Z,11.05
2019-03-28T21:53:12.153Z,10.70
2019-03-28T21:55:54.289Z,10.88
2019-03-28T21:58:13.293Z,10.72
2019-03-28T22:00:42.797Z,10.45
2019-03-28T22:03:12.576Z,11.07
2019-03-28T22:05:42.466Z,11.00
2019-03-28T22:08:12.239Z,12.53
2019-03-28T22:10:42.435Z,15.68
2019-03-28T22:13:12.863Z,13.48
2019-03-28T22:15:42.308Z,12.50
2019-03-28T22:18:11.856Z,13.20
2019-03-28T22:20:41.313Z,12.93
2019-03-28T22:23:13.410Z,11.80
2019-03-28T22:25:41.938Z,12.33
2019-03-28T22:28:11.503Z,12.00
2019-03-28T22:30:41.010Z,13.22
2019-03-28T22:33:10.616Z,12.58
2019-03-28T22:35:40.055Z,12.47
2019-03-28T22:38:09.671Z,13.55
2019-03-28T22:40:39.196Z,13.70
2019-03-28T22:43:08.720Z,14.32
2019-03-28T22:45:38.169Z,13.98
2019-03-28T22:48:10.924Z,14.33
2019-03-28T22:50:38.866Z,13.88
2019-03-28T22:53:08.469Z,13.95
2019-03-28T22:55:37.980Z,13.70
2019-03-28T22:58:08.202Z,14.13
2019-03-28T23:00:48.619Z,13.13
2019-03-28T23:03:20.822Z,12.80
2019-03-28T23:05:50.579Z,13.45
2019-03-28T23:08:21.093Z,12.68
2019-03-28T23:10:50.523Z,13.68
2019-03-28T23:13:20.085Z,13.18
2019-03-28T23:15:51.222Z,13.35
2019-03-28T23:18:20.700Z,12.85
2019-03-28T23:20:50.378Z,13.22
2019-03-28T23:23:19.855Z,13.40
2019-03-28T23:25:49.309Z,13.60
2019-03-28T23:28:18.991Z,12.95
2019-03-28T23:30:48.957Z,12.85
2019-03-28T23:33:18.391Z,13.43
2019-03-28T23:35:47.876Z,13.00
2019-03-28T23:38:17.315Z,13.85
2019-03-28T23:40:46.792Z,13.05
2019-03-28T23:43:16.332Z,15.65
2019-03-28T23:45:46.031Z,14.33
2019-03-28T23:48:15.496Z,13.53
2019-03-28T23:50:46.019Z,13.15
2019-03-28T23:53:15.502Z,13.80
2019-03-28T23:55:45.158Z,13.95
2019-03-28T23:58:15.218Z,14.13
